Time,TemperatureF,DewpointF,PressureIn,WindDirection,WindDirectionDegrees,WindSpeedMPH,WindSpeedGustMPH,Humidity,HourlyPrecipIn,Conditions,Clouds,dailyrainin,SoftwareType,DateUTC
2013-06-06 00:02:00,52.8,50.5,30.03,West,280,0.0,0.0,92,0.00,,OVC003,0.00,VWS V14.01,2013-06-06 07:02:00,
2013-06-06 00:07:00,52.8,50.5,30.03,West,280,0.0,0.0,92,0.00,,OVC003,0.00,VWS V14.01,2013-06-06 07:07:00,
2013-06-06 00:12:00,52.6,50.3,30.03,West,280,0.0,0.0,92,0.00,,OVC003,0.00,VWS V14.01,2013-06-06 07:12:00,
2013-06-06 00:17:00,52.6,50.3,30.02,West,280,0.0,0.0,92,0.00,,OVC003,0.00,VWS V14.01,2013-06-06 07:17:00,
2013-06-06 00:22:00,52.6,50.3,30.02,West,280,0.0,1.0,92,0.00,,OVC003,0.00,VWS V14.01,2013-06-06 07:22:00,
2013-06-06 00:27:00,52.6,50.3,30.02,West,280,2.0,2.0,92,0.00,,OVC003,0.00,VWS V14.01,2013-06-06 07:27:00,
2013-06-06 00:32:00,52.5,50.2,30.02,West,280,0.0,0.0,92,0.00,,OVC003,0.00,VWS V14.01,2013-06-06 07:32:00,
2013-06-06 00:37:00,52.5,50.2,30.02,West,280,0.0,1.0,92,0.00,,OVC003,0.00,VWS V14.01,2013-06-06 07:37:00,
2013-06-06 00:42:00,52.5,50.2,30.02,West,280,0.0,0.0,92,0.00,,OVC003,0.00,VWS V14.01,2013-06-06 07:42:00,
2013-06-06 00:47:00,52.5,50.2,30.02,West,280,0.0,0.0,92,0.00,,OVC003,0.00,VWS V14.01,2013-06-06 07:47:00,
2013-06-06 00:52:00,52.5,50.2,30.02,West,280,0.0,0.0,92,0.00,,OVC003,0.00,VWS V14.01,2013-06-06 07:52:00,
2013-06-06 00:57:00,52.5,50.2,30.01,West,280,0.0,1.0,92,0.00,,OVC003,0.00,VWS V14.01,2013-06-06 07:57:00,
2013-06-06 01:02:00,52.5,50.2,30.01,West,280,1.0,2.0,92,0.00,,OVC003,0.00,VWS V14.01,2013-06-06 08:02:00,
2013-06-06 01:07:00,52.3,50.0,30.01,West,280,0.0,0.0,92,0.00,,OVC003,0.00,VWS V14.01,2013-06-06 08:07:00,
2013-06-06 01:12:00,52.3,50.0,30.01,West,280,0.0,1.0,92,0.00,,OVC003,0.00,VWS V14.01,2013-06-06 08:12:00,
2013-06-06 01:17:00,52.3,50.0,30.01,West,280,0.0,2.0,92,0.00,,OVC003,0.00,VWS V14.01,2013-06-06 08:17:00,
2013-06-06 01:22:00,52.2,50.0,30.01,West,280,0.0,2.0,92,0.00,,OVC003,0.00,VWS V14.01,2013-06-06 08:22:00,
2013-06-06 01:27:00,52.2,50.0,30.01,West,280,0.0,0.0,92,0.00,,OVC003,0.00,VWS V14.01,2013-06-06 08:27:00,
2013-06-06 01:32:00,52.0,49.8,30.01,West,280,0.0,0.0,92,0.00,,OVC003,0.00,VWS V14.01,2013-06-06 08:32:00,
2013-06-06 01:37:00,52.0,49.8,30.01,West,280,0.0,0.0,92,0.00,,OVC003,0.00,VWS V14.01,2013-06-06 08:37:00,
2013-06-06 01:42:00,52.0,49.8,30.01,West,280,0.0,0.0,92,0.00,,OVC003,0.00,VWS V14.01,2013-06-06 08:42:00,
2013-06-06 01:47:00,52.0,49.8,30.01,West,280,0.0,0.0,92,0.00,,OVC003,0.00,VWS V14.01,2013-06-06 08:47:00,
2013-06-06 01:52:00,52.0,49.8,30.01,West,280,1.0,1.0,92,0.00,,OVC003,0.00,VWS V14.01,2013-06-06 08:52:00,
2013-06-06 01:57:00,51.9,49.7,30.01,West,280,0.0,0.0,92,0.00,,OVC003,0.00,VWS V14.01,2013-06-06 08:57:00,
2013-06-06 02:02:00,51.9,49.7,30.01,West,280,0.0,0.0,92,0.00,,OVC003,0.00,VWS V14.01,2013-06-06 09:02:00,
2013-06-06 02:07:00,51.7,49.5,30.01,West,280,0.0,0.0,92,0.00,,OVC003,0.00,VWS V14.01,2013-06-06 09:07:00,
2013-06-06 02:12:00,51.7,49.5,30.01,West,280,0.0,0.0,92,0.00,,OVC003,0.00,VWS V14.01,2013-06-06 09:12:00,
2013-06-06 02:17:00,51.7,49.5,30.01,West,280,0.0,0.0,92,0.00,,OVC003,0.00,VWS V14.01,2013-06-06 09:17:00,
2013-06-06 02:22:00,51.7,49.5,30.01,West,280,0.0,0.0,92,0.00,,OVC003,0.00,VWS V14.01,2013-06-06 09:22:00,
2013-06-06 02:27:00,51.9,49.7,30.01,West,280,0.0,0.0,92,0.00,,OVC003,0.00,VWS V14.01,2013-06-06 09:27:00,
2013-06-06 02:32:00,51.9,49.7,30.01,West,280,0.0,0.0,92,0.00,,OVC003,0.00,VWS V14.01,2013-06-06 09:32:00,
2013-06-06 02:37:00,51.7,49.5,30.01,West,280,0.0,0.0,92,0.00,,OVC003,0.00,VWS V14.01,2013-06-06 09:37:00,
2013-06-06 02:42:00,51.7,49.5,30.01,West,280,0.0,0.0,92,0.00,,OVC003,0.00,VWS V14.01,2013-06-06 09:42:00,
2013-06-06 02:47:00,51.7,49.5,30.01,West,280,0.0,0.0,92,0.00,,OVC003,0.00,VWS V14.01,2013-06-06 09:47:00,
2013-06-06 02:52:00,51.9,49.7,30.01,West,280,0.0,0.0,92,0.00,,OVC003,0.00,VWS V14.01,2013-06-06 09:52:00,
2013-06-06 02:57:00,51.9,49.7,30.01,West,280,0.0,0.0,92,0.00,,OVC003,0.00,VWS V14.01,2013-06-06 09:57:00,
2013-06-06 03:02:00,51.9,49.7,30.01,West,280,0.0,0.0,92,0.00,,OVC003,0.00,VWS V14.01,2013-06-06 10:02:00,
2013-06-06 03:07:00,51.9,49.7,30.01,West,280,0.0,1.0,92,0.00,,OVC003,0.00,VWS V14.01,2013-06-06 10:07:00,
2013-06-06 03:12:00,51.7,49.8,30.01,West,280,0.0,0.0,93,0.00,,OVC003,0.00,VWS V14.01,2013-06-06 10:12:00,
2013-06-06 03:17:00,51.7,49.8,30.01,WNW,301,0.0,0.0,93,0.00,,OVC003,0.00,VWS V14.01,2013-06-06 10:17:00,
2013-06-06 03:22:00,51.7,49.8,30.01,WNW,301,0.0,0.0,93,0.00,,OVC003,0.00,VWS V14.01,2013-06-06 10:22:00,
2013-06-06 03:27:00,51.7,49.8,30.01,WNW,301,1.0,1.0,93,0.00,,OVC003,0.00,VWS V14.01,2013-06-06 10:27:00,
2013-06-06 03:32:00,51.6,49.7,30.01,WNW,301,0.0,3.0,93,0.00,,OVC003,0.00,VWS V14.01,2013-06-06 10:32:00,
2013-06-06 03:37:00,51.6,49.7,30.01,WNW,301,0.0,1.0,93,0.00,,OVC003,0.00,VWS V14.01,2013-06-06 10:37:00,
2013-06-06 03:42:00,51.7,49.8,30.01,WNW,301,0.0,2.0,93,0.00,,OVC003,0.00,VWS V14.01,2013-06-06 10:42:00,
2013-06-06 03:47:00,51.7,49.8,30.01,WNW,301,0.0,2.0,93,0.00,,OVC003,0.00,VWS V14.01,2013-06-06 10:47:00,
2013-06-06 03:52:00,51.7,49.8,30.01,WNW,301,0.0,0.0,93,0.00,,OVC003,0.00,VWS V14.01,2013-06-06 10:52:00,
2013-06-06 03:57:00,51.9,49.9,30.01,WNW,301,0.0,0.0,93,0.00,,OVC003,0.00,VWS V14.01,2013-06-06 10:57:00,
2013-06-06 04:02:00,51.7,49.8,30.01,WNW,301,0.0,1.0,93,0.00,,OVC003,0.00,VWS V14.01,2013-06-06 11:02:00,
2013-06-06 04:07:00,51.7,49.8,30.01,WNW,301,0.0,0.0,93,0.00,,OVC003,0.00,VWS V14.01,2013-06-06 11:07:00,
2013-06-06 04:12:00,51.6,49.7,30.01,WNW,301,0.0,0.0,93,0.00,,OVC003,0.00,VWS V14.01,2013-06-06 11:12:00,
2013-06-06 04:17:00,51.6,49.7,30.01,WNW,301,0.0,0.0,93,0.00,,OVC003,0.00,VWS V14.01,2013-06-06 11:17:00,
2013-06-06 04:22:00,51.6,49.7,30.01,WNW,301,0.0,0.0,93,0.00,,OVC003,0.00,VWS V14.01,2013-06-06 11:22:00,
2013-06-06 04:27:00,51.6,49.7,30.01,WNW,301,0.0,0.0,93,0.00,,OVC003,0.00,VWS V14.01,2013-06-06 11:27:00,
2013-06-06 04:32:00,51.6,49.7,30.01,WNW,301,0.0,0.0,93,0.00,,OVC003,0.00,VWS V14.01,2013-06-06 11:32:00,
2013-06-06 04:37:00,51.6,49.7,30.01,WNW,301,0.0,0.0,93,0.00,,OVC003,0.00,VWS V14.01,2013-06-06 11:37:00,
2013-06-06 04:42:00,51.6,49.7,30.01,WNW,301,0.0,0.0,93,0.00,,OVC003,0.00,VWS V14.01,2013-06-06 11:42:00,
2013-06-06 04:47:00,51.4,49.5,30.01,WNW,301,0.0,0.0,93,0.00,,OVC003,0.00,VWS V14.01,2013-06-06 11:47:00,
2013-06-06 04:52:00,51.4,49.5,30.01,WNW,301,0.0,0.0,93,0.00,,OVC003,0.00,VWS V14.01,2013-06-06 11:52:00,
2013-06-06 04:57:00,51.4,49.5,30.01,WNW,301,0.0,0.0,93,0.00,,OVC003,0.00,VWS V14.01,2013-06-06 11:57:00,
2013-06-06 05:02:00,51.4,49.5,30.01,WNW,301,1.0,2.0,93,0.00,,OVC003,0.00,VWS V14.01,2013-06-06 12:02:00,
2013-06-06 05:07:00,51.4,49.5,30.01,WNW,301,1.0,2.0,93,0.00,,OVC003,0.00,VWS V14.01,2013-06-06 12:07:00,
2013-06-06 05:12:00,51.4,49.7,30.01,WNW,301,0.0,0.0,94,0.01,,OVC003,0.01,VWS V14.01,2013-06-06 12:12:00,
2013-06-06 05:17:00,51.4,49.7,30.01,WNW,301,0.0,2.0,94,0.01,,OVC003,0.01,VWS V14.01,2013-06-06 12:17:00,
2013-06-06 05:22:00,51.4,49.7,30.01,WNW,301,0.0,1.0,94,0.01,,OVC003,0.01,VWS V14.01,2013-06-06 12:22:00,
2013-06-06 05:27:00,51.4,49.7,30.01,WNW,301,0.0,0.0,94,0.01,,OVC003,0.01,VWS V14.01,2013-06-06 12:27:00,
2013-06-06 05:32:00,51.4,49.7,30.01,WNW,301,0.0,0.0,94,0.01,,OVC003,0.01,VWS V14.01,2013-06-06 12:32:00,
2013-06-06 05:37:00,51.3,49.6,30.01,West,277,0.0,3.0,94,0.01,,OVC003,0.01,VWS V14.01,2013-06-06 12:37:00,
2013-06-06 05:42:00,51.1,49.4,30.01,West,277,0.0,3.0,94,0.01,,OVC002,0.01,VWS V14.01,2013-06-06 12:42:00,
2013-06-06 05:47:00,51.1,49.4,30.01,West,277,0.0,1.0,94,0.01,,OVC002,0.01,VWS V14.01,2013-06-06 12:47:00,
2013-06-06 05:52:00,51.0,49.3,30.01,West,277,0.0,1.0,94,0.01,,OVC002,0.01,VWS V14.01,2013-06-06 12:52:00,
2013-06-06 05:57:00,51.0,49.3,30.01,West,277,0.0,0.0,94,0.01,,OVC002,0.01,VWS V14.01,2013-06-06 12:57:00,
2013-06-06 06:02:00,50.8,49.1,30.01,West,277,0.0,0.0,94,0.01,,OVC002,0.01,VWS V14.01,2013-06-06 13:02:00,
2013-06-06 06:07:00,50.8,49.1,30.01,West,277,0.0,0.0,94,0.01,,OVC002,0.01,VWS V14.01,2013-06-06 13:07:00,
2013-06-06 06:12:00,50.7,49.3,30.01,West,277,1.0,2.0,95,0.01,,OVC002,0.01,VWS V14.01,2013-06-06 13:12:00,
2013-06-06 06:17:00,50.7,49.3,30.01,West,277,0.0,0.0,95,0.00,,OVC002,0.01,VWS V14.01,2013-06-06 13:17:00,
2013-06-06 06:22:00,50.7,49.3,30.01,West,277,0.0,0.0,95,0.00,,OVC002,0.01,VWS V14.01,2013-06-06 13:22:00,
2013-06-06 06:27:00,50.7,49.3,30.01,West,277,0.0,1.0,95,0.00,,OVC002,0.01,VWS V14.01,2013-06-06 13:27:00,
2013-06-06 06:32:00,50.8,49.4,30.01,West,277,0.0,1.0,95,0.00,,OVC002,0.01,VWS V14.01,2013-06-06 13:32:00,
2013-06-06 06:37:00,50.8,49.4,30.01,West,277,0.0,0.0,95,0.00,,OVC002,0.01,VWS V14.01,2013-06-06 13:37:00,
2013-06-06 06:42:00,50.8,49.4,30.01,West,277,0.0,0.0,95,0.00,,OVC002,0.01,VWS V14.01,2013-06-06 13:42:00,
2013-06-06 06:47:00,51.0,49.6,30.01,West,277,1.0,1.0,95,0.00,,OVC002,0.01,VWS V14.01,2013-06-06 13:47:00,
2013-06-06 06:52:00,51.0,49.6,30.01,West,277,0.0,1.0,95,0.00,,OVC002,0.01,VWS V14.01,2013-06-06 13:52:00,
2013-06-06 06:57:00,51.0,49.6,30.01,West,277,0.0,0.0,95,0.00,,OVC002,0.01,VWS V14.01,2013-06-06 13:57:00,
2013-06-06 07:02:00,50.8,49.4,30.01,West,277,0.0,0.0,95,0.00,,OVC003,0.01,VWS V14.01,2013-06-06 14:02:00,
2013-06-06 07:07:00,51.0,49.6,30.01,West,277,2.0,2.0,95,0.00,,OVC003,0.01,VWS V14.01,2013-06-06 14:07:00,
2013-06-06 07:12:00,51.0,49.6,30.01,West,277,2.0,3.0,95,0.00,,OVC003,0.01,VWS V14.01,2013-06-06 14:12:00,
2013-06-06 07:17:00,51.1,49.7,30.01,West,277,0.0,1.0,95,0.00,,OVC003,0.01,VWS V14.01,2013-06-06 14:17:00,
2013-06-06 07:22:00,51.3,49.9,30.01,West,277,2.0,4.0,95,0.00,,OVC003,0.01,VWS V14.01,2013-06-06 14:22:00,
2013-06-06 07:27:00,51.3,49.9,30.01,West,277,0.0,1.0,95,0.00,,OVC003,0.01,VWS V14.01,2013-06-06 14:27:00,
2013-06-06 07:32:00,51.1,49.7,30.01,West,277,0.0,0.0,95,0.00,,OVC003,0.01,VWS V14.01,2013-06-06 14:32:00,
2013-06-06 07:37:00,51.3,49.9,30.01,West,277,0.0,0.0,95,0.00,,OVC003,0.01,VWS V14.01,2013-06-06 14:37:00,
2013-06-06 07:42:00,51.1,49.7,30.01,West,277,0.0,0.0,95,0.00,,OVC003,0.01,VWS V14.01,2013-06-06 14:42:00,
2013-06-06 07:47:00,51.0,49.6,30.01,West,277,0.0,0.0,95,0.00,,OVC003,0.01,VWS V14.01,2013-06-06 14:47:00,
2013-06-06 07:52:00,51.3,49.9,30.01,West,277,1.0,1.0,95,0.00,,OVC003,0.01,VWS V14.01,2013-06-06 14:52:00,
2013-06-06 07:57:00,51.3,49.9,30.01,West,277,0.0,2.0,95,0.00,,OVC003,0.01,VWS V14.01,2013-06-06 14:57:00,
2013-06-06 08:02:00,51.6,50.2,30.01,West,277,0.0,2.0,95,0.00,,OVC003,0.01,VWS V14.01,2013-06-06 15:02:00,
2013-06-06 08:07:00,51.7,50.3,30.01,West,277,0.0,0.0,95,0.00,,OVC003,0.01,VWS V14.01,2013-06-06 15:07:00,
2013-06-06 08:12:00,51.9,50.8,30.01,West,277,0.0,3.0,96,0.00,,OVC003,0.01,VWS V14.01,2013-06-06 15:12:00,
2013-06-06 08:17:00,52.0,50.6,30.01,West,277,0.0,0.0,95,0.00,,OVC003,0.01,VWS V14.01,2013-06-06 15:17:00,
2013-06-06 08:22:00,51.9,50.5,30.01,West,277,3.0,3.0,95,0.00,,OVC003,0.01,VWS V14.01,2013-06-06 15:22:00,
2013-06-06 08:27:00,51.7,50.3,30.01,West,277,0.0,0.0,95,0.00,,OVC003,0.01,VWS V14.01,2013-06-06 15:27:00,
2013-06-06 08:32:00,51.6,50.2,30.01,West,277,0.0,0.0,95,0.00,,OVC003,0.01,VWS V14.01,2013-06-06 15:32:00,
2013-06-06 08:37:00,51.4,50.0,30.01,West,277,0.0,0.0,95,0.00,,OVC003,0.01,VWS V14.01,2013-06-06 15:37:00,
2013-06-06 08:42:00,51.6,50.2,30.01,West,277,0.0,0.0,95,0.00,,OVC003,0.01,VWS V14.01,2013-06-06 15:42:00,
2013-06-06 08:47:00,52.2,51.1,30.01,West,277,0.0,0.0,96,0.00,,OVC003,0.01,VWS V14.01,2013-06-06 15:47:00,
2013-06-06 08:52:00,52.6,51.5,30.01,West,277,0.0,0.0,96,0.00,,OVC003,0.01,VWS V14.01,2013-06-06 15:52:00,
2013-06-06 08:57:00,52.8,51.4,30.01,West,277,0.0,0.0,95,0.00,,OVC003,0.01,VWS V14.01,2013-06-06 15:57:00,
2013-06-06 09:02:00,52.9,51.5,30.01,West,277,0.0,0.0,95,0.00,,OVC004,0.01,VWS V14.01,2013-06-06 16:02:00,
2013-06-06 09:07:00,52.8,51.4,30.01,West,277,0.0,0.0,95,0.00,,OVC004,0.01,VWS V14.01,2013-06-06 16:07:00,
2013-06-06 09:12:00,52.9,51.5,30.01,West,277,1.0,1.0,95,0.00,,OVC004,0.01,VWS V14.01,2013-06-06 16:12:00,
2013-06-06 09:17:00,52.9,51.2,30.01,WNW,301,0.0,3.0,94,0.00,,OVC004,0.01,VWS V14.01,2013-06-06 16:17:00,
2013-06-06 09:22:00,52.9,51.5,30.01,WNW,301,0.0,1.0,95,0.00,,OVC004,0.01,VWS V14.01,2013-06-06 16:22:00,
2013-06-06 09:27:00,53.2,51.8,30.01,WNW,302,2.0,4.0,95,0.00,,OVC004,0.01,VWS V14.01,2013-06-06 16:27:00,
2013-06-06 09:32:00,53.2,51.5,30.01,North,355,0.0,0.0,94,0.00,,OVC004,0.01,VWS V14.01,2013-06-06 16:32:00,
2013-06-06 09:37:00,53.3,51.6,30.01,North,355,0.0,0.0,94,0.00,,OVC004,0.01,VWS V14.01,2013-06-06 16:37:00,
2013-06-06 09:42:00,53.3,51.3,30.01,North,355,0.0,3.0,93,0.00,,OVC004,0.01,VWS V14.01,2013-06-06 16:42:00,
2013-06-06 09:47:00,53.3,51.3,30.01,North,355,0.0,1.0,93,0.00,,OVC004,0.01,VWS V14.01,2013-06-06 16:47:00,
2013-06-06 09:52:00,53.6,51.6,30.01,North,355,2.0,4.0,93,0.00,,OVC004,0.01,VWS V14.01,2013-06-06 16:52:00,
2013-06-06 09:57:00,53.6,51.6,30.01,North,351,0.0,3.0,93,0.00,,OVC004,0.01,VWS V14.01,2013-06-06 16:57:00,
2013-06-06 10:02:00,53.6,51.6,30.01,North,350,0.0,0.0,93,0.00,,OVC003,0.01,VWS V14.01,2013-06-06 17:02:00,
2013-06-06 10:07:00,54.1,52.1,30.01,North,350,0.0,0.0,93,0.00,,OVC003,0.01,VWS V14.01,2013-06-06 17:07:00,
2013-06-06 10:12:00,54.1,51.8,30.01,North,350,0.0,3.0,92,0.00,,OVC003,0.01,VWS V14.01,2013-06-06 17:12:00,
2013-06-06 10:17:00,54.4,52.4,30.01,North,350,0.0,2.0,93,0.00,,OVC003,0.01,VWS V14.01,2013-06-06 17:17:00,
2013-06-06 10:22:00,54.4,52.1,30.01,North,351,4.0,4.0,92,0.00,,OVC003,0.01,VWS V14.01,2013-06-06 17:22:00,
2013-06-06 10:27:00,54.4,52.1,30.00,North,351,2.0,3.0,92,0.00,,OVC003,0.01,VWS V14.01,2013-06-06 17:27:00,
2013-06-06 10:32:00,54.5,52.2,30.00,North,351,0.0,0.0,92,0.00,,OVC003,0.01,VWS V14.01,2013-06-06 17:32:00,
2013-06-06 10:37:00,54.8,52.5,30.00,North,350,1.0,1.0,92,0.00,,OVC003,0.01,VWS V14.01,2013-06-06 17:37:00,
2013-06-06 10:42:00,55.0,52.4,30.00,North,350,3.0,4.0,91,0.00,,OVC003,0.01,VWS V14.01,2013-06-06 17:42:00,
2013-06-06 10:47:00,55.1,52.5,30.00,North,350,0.0,5.0,91,0.00,,OVC003,0.01,VWS V14.01,2013-06-06 17:47:00,
2013-06-06 10:52:00,55.1,52.2,30.00,North,350,0.0,0.0,90,0.00,,OVC003,0.01,VWS V14.01,2013-06-06 17:52:00,
2013-06-06 10:57:00,55.6,53.0,30.00,North,350,0.0,1.0,91,0.00,,OVC003,0.01,VWS V14.01,2013-06-06 17:57:00,
2013-06-06 11:02:00,56.0,53.4,30.00,North,350,0.0,0.0,91,0.00,,OVC003,0.01,VWS V14.01,2013-06-06 18:02:00,
2013-06-06 11:07:00,56.3,53.1,30.00,NNW,346,0.0,1.0,89,0.00,,OVC003,0.01,VWS V14.01,2013-06-06 18:07:00,
2013-06-06 11:12:00,56.6,53.4,30.00,NNW,346,0.0,3.0,89,0.00,,OVC003,0.01,VWS V14.01,2013-06-06 18:12:00,
2013-06-06 11:18:00,57.2,54.0,30.00,WSW,257,3.0,5.0,89,0.00,,OVC003,0.01,VWS V14.01,2013-06-06 18:18:00,
2013-06-06 11:23:00,58.3,55.1,30.00,WSW,255,0.0,1.0,89,0.00,,OVC003,0.01,VWS V14.01,2013-06-06 18:23:00,
2013-06-06 11:28:00,58.6,54.8,30.00,NNE,15,0.0,1.0,87,0.00,,OVC003,0.01,VWS V14.01,2013-06-06 18:28:00,
2013-06-06 11:33:00,58.6,54.4,30.00,North,5,1.0,3.0,86,0.00,,OVC003,0.01,VWS V14.01,2013-06-06 18:33:00,
2013-06-06 11:38:00,59.2,54.7,30.00,North,9,0.0,4.0,85,0.00,,OVC003,0.01,VWS V14.01,2013-06-06 18:38:00,
2013-06-06 11:43:00,59.3,54.5,30.00,NNW,340,1.0,6.0,84,0.00,,OVC003,0.01,VWS V14.01,2013-06-06 18:43:00,
2013-06-06 11:48:00,59.5,54.3,30.00,North,349,0.0,1.0,83,0.00,,OVC003,0.01,VWS V14.01,2013-06-06 18:48:00,
2013-06-06 11:53:00,59.9,55.1,30.00,WSW,254,0.0,5.0,84,0.00,,OVC003,0.01,VWS V14.01,2013-06-06 18:53:00,
2013-06-06 11:58:00,60.1,54.6,30.00,NNW,342,0.0,0.0,82,0.00,,OVC003,0.01,VWS V14.01,2013-06-06 18:58:00,
2013-06-06 12:03:00,60.4,54.5,30.00,West,274,0.0,5.0,81,0.00,,OVC005,0.01,VWS V14.01,2013-06-06 19:03:00,
2013-06-06 12:08:00,60.7,54.8,30.00,WNW,282,0.0,0.0,81,0.00,,OVC005,0.01,VWS V14.01,2013-06-06 19:08:00,
2013-06-06 12:12:00,61.0,54.8,30.00,WNW,298,0.0,3.0,80,0.00,,OVC005,0.01,VWS V14.01,2013-06-06 19:12:00,
2013-06-06 12:17:00,61.2,55.0,30.00,WNW,299,6.0,6.0,80,0.00,,OVC005,0.01,VWS V14.01,2013-06-06 19:17:00,
2013-06-06 12:22:00,61.6,55.4,30.00,NNW,340,6.0,6.0,80,0.00,,OVC005,0.01,VWS V14.01,2013-06-06 19:22:00,
2013-06-06 12:27:00,61.8,55.2,30.00,NW,315,4.0,5.0,79,0.00,,OVC005,0.01,VWS V14.01,2013-06-06 19:27:00,
2013-06-06 12:32:00,61.8,55.2,30.00,NNW,331,8.0,8.0,79,0.00,,OVC005,0.01,VWS V14.01,2013-06-06 19:32:00,
2013-06-06 12:34:00,61.8,54.9,30.00,NNW,327,5.0,8.0,78,0.00,,OVC005,0.01,VWS V14.01,2013-06-06 19:34:00,
2013-06-06 12:39:00,61.8,54.9,30.00,WSW,251,0.0,5.0,78,0.00,,OVC005,0.01,VWS V14.01,2013-06-06 19:39:00,
2013-06-06 12:44:00,61.8,54.9,30.00,NNW,334,1.0,4.0,78,0.00,,OVC005,0.01,VWS V14.01,2013-06-06 19:44:00,
2013-06-06 12:49:00,62.3,55.7,30.00,WNW,288,0.0,6.0,79,0.00,,OVC005,0.01,VWS V14.01,2013-06-06 19:49:00,
2013-06-06 12:54:00,62.1,55.2,30.00,NW,305,7.0,11.0,78,0.00,,OVC005,0.01,VWS V14.01,2013-06-06 19:54:00,
2013-06-06 12:59:00,62.0,55.1,30.00,NNW,338,6.0,9.0,78,0.00,,OVC005,0.01,VWS V14.01,2013-06-06 19:59:00,
2013-06-06 13:04:00,61.8,54.9,30.00,NNW,330,9.0,9.0,78,0.00,,BKN006,0.01,VWS V14.01,2013-06-06 20:04:00,
2013-06-06 13:09:00,61.8,54.9,30.01,WNW,295,2.0,14.0,78,0.00,,BKN006,0.01,VWS V14.01,2013-06-06 20:09:00,
2013-06-06 13:14:00,61.5,54.6,30.01,NNW,338,0.0,6.0,78,0.00,,BKN006,0.01,VWS V14.01,2013-06-06 20:14:00,
2013-06-06 13:19:00,61.5,54.9,30.01,West,281,1.0,8.0,79,0.00,,BKN006,0.01,VWS V14.01,2013-06-06 20:19:00,
2013-06-06 13:24:00,61.8,54.9,30.01,NW,313,0.0,7.0,78,0.00,,BKN006,0.01,VWS V14.01,2013-06-06 20:24:00,
2013-06-06 13:29:00,61.6,54.0,30.01,NNW,327,6.0,15.0,76,0.00,,BKN006,0.01,VWS V14.01,2013-06-06 20:29:00,
2013-06-06 13:34:00,61.5,54.6,30.01,NW,326,3.0,8.0,78,0.00,,BKN006,0.01,VWS V14.01,2013-06-06 20:34:00,
2013-06-06 13:39:00,61.3,54.4,30.01,SW,218,0.0,1.0,78,0.00,,BKN006,0.01,VWS V14.01,2013-06-06 20:39:00,
2013-06-06 13:44:00,61.5,54.2,30.01,West,266,3.0,8.0,77,0.00,,BKN006,0.01,VWS V14.01,2013-06-06 20:44:00,
2013-06-06 13:49:00,61.6,54.3,30.02,WNW,298,2.0,7.0,77,0.00,,BKN006,0.01,VWS V14.01,2013-06-06 20:49:00,
2013-06-06 13:54:00,61.6,54.7,30.02,West,263,1.0,7.0,78,0.00,,BKN006,0.01,VWS V14.01,2013-06-06 20:54:00,
2013-06-06 13:59:00,61.8,54.5,30.02,NNW,343,5.0,9.0,77,0.00,,BKN006,0.01,VWS V14.01,2013-06-06 20:59:00,
2013-06-06 14:04:00,61.8,54.5,30.02,WNW,284,2.0,9.0,77,0.00,,BKN004,0.01,VWS V14.01,2013-06-06 21:04:00,
2013-06-06 14:09:00,62.0,54.7,30.02,West,277,4.0,7.0,77,0.00,,BKN004,0.01,VWS V14.01,2013-06-06 21:09:00,
2013-06-06 14:14:00,62.3,54.7,30.02,West,264,0.0,10.0,76,0.00,,BKN004,0.01,VWS V14.01,2013-06-06 21:14:00,
2013-06-06 14:19:00,62.4,54.8,30.02,NNW,347,6.0,13.0,76,0.00,,BKN004,0.01,VWS V14.01,2013-06-06 21:19:00,
2013-06-06 14:24:00,62.6,54.9,30.02,WSW,256,3.0,11.0,76,0.00,,BKN004,0.01,VWS V14.01,2013-06-06 21:24:00,
2013-06-06 14:29:00,62.6,55.3,30.02,WSW,238,0.0,9.0,77,0.00,,BKN004,0.01,VWS V14.01,2013-06-06 21:29:00,
2013-06-06 14:34:00,62.7,54.7,30.02,NW,323,4.0,9.0,75,0.00,,BKN004,0.01,VWS V14.01,2013-06-06 21:34:00,
2013-06-06 14:39:00,62.7,55.0,30.02,WNW,286,9.0,9.0,76,0.00,,BKN004,0.01,VWS V14.01,2013-06-06 21:39:00,
2013-06-06 14:44:00,62.9,55.2,30.02,NW,305,0.0,9.0,76,0.00,,BKN004,0.01,VWS V14.01,2013-06-06 21:44:00,
2013-06-06 14:49:00,62.9,54.5,30.02,West,265,0.0,9.0,74,0.00,,BKN004,0.01,VWS V14.01,2013-06-06 21:49:00,
2013-06-06 14:54:00,62.6,54.2,30.02,NW,304,4.0,11.0,74,0.00,,BKN004,0.01,VWS V14.01,2013-06-06 21:54:00,
2013-06-06 14:59:00,62.4,54.0,30.03,WSW,240,6.0,9.0,74,0.00,,BKN004,0.01,VWS V14.01,2013-06-06 21:59:00,
2013-06-06 15:04:00,62.6,54.9,30.03,North,349,0.0,8.0,76,0.00,,BKN006,0.01,VWS V14.01,2013-06-06 22:04:00,
2013-06-06 15:09:00,62.1,53.7,30.03,WNW,284,4.0,10.0,74,0.00,,BKN006,0.01,VWS V14.01,2013-06-06 22:09:00,
2013-06-06 15:14:00,61.8,54.2,30.03,NNW,333,5.0,9.0,76,0.01,,BKN006,0.02,VWS V14.01,2013-06-06 22:14:00,
2013-06-06 15:19:00,61.3,53.7,30.03,WNW,291,6.0,6.0,76,0.01,,BKN006,0.02,VWS V14.01,2013-06-06 22:19:00,
2013-06-06 15:24:00,60.7,53.1,30.03,NNW,348,2.0,4.0,76,0.01,,BKN006,0.02,VWS V14.01,2013-06-06 22:24:00,
2013-06-06 15:29:00,60.2,53.0,30.02,NNW,342,0.0,6.0,77,0.01,,BKN006,0.02,VWS V14.01,2013-06-06 22:29:00,
2013-06-06 15:34:00,59.9,52.7,30.03,NNE,13,0.0,5.0,77,0.01,,BKN006,0.02,VWS V14.01,2013-06-06 22:34:00,
2013-06-06 15:39:00,59.6,53.1,30.03,NW,308,2.0,6.0,79,0.01,,BKN006,0.02,VWS V14.01,2013-06-06 22:39:00,
2013-06-06 15:44:00,59.3,52.8,30.03,WSW,253,0.0,6.0,79,0.01,,BKN006,0.02,VWS V14.01,2013-06-06 22:44:00,
2013-06-06 15:49:00,59.0,52.5,30.03,West,281,4.0,8.0,79,0.01,,BKN006,0.02,VWS V14.01,2013-06-06 22:49:00,
2013-06-06 15:54:00,58.6,52.1,30.03,WNW,288,0.0,5.0,79,0.01,,BKN006,0.02,VWS V14.01,2013-06-06 22:54:00,
2013-06-06 15:59:00,58.1,52.0,30.03,West,273,2.0,6.0,80,0.01,,BKN006,0.02,VWS V14.01,2013-06-06 22:59:00,
2013-06-06 16:04:00,58.0,52.2,30.03,West,281,9.0,9.0,81,0.01,,OVC006,0.02,VWS V14.01,2013-06-06 23:04:00,
2013-06-06 16:09:00,57.6,52.2,30.03,West,275,1.0,8.0,82,0.01,,OVC006,0.02,VWS V14.01,2013-06-06 23:09:00,
2013-06-06 16:14:00,57.5,52.4,30.03,WNW,292,2.0,6.0,83,0.01,,OVC006,0.02,VWS V14.01,2013-06-06 23:14:00,
2013-06-06 16:19:00,57.0,51.6,30.03,NW,304,0.0,8.0,82,0.00,,OVC006,0.02,VWS V14.01,2013-06-06 23:19:00,
2013-06-06 16:24:00,56.9,51.8,30.03,West,278,4.0,6.0,83,0.00,,OVC006,0.02,VWS V14.01,2013-06-06 23:24:00,
2013-06-06 16:29:00,56.7,51.6,30.03,WNW,288,4.0,4.0,83,0.00,,OVC006,0.02,VWS V14.01,2013-06-06 23:29:00,
2013-06-06 16:34:00,56.6,51.8,30.03,NE,34,2.0,2.0,84,0.00,,OVC006,0.02,VWS V14.01,2013-06-06 23:34:00,
2013-06-06 16:39:00,56.3,51.2,30.03,NNW,338,3.0,10.0,83,0.00,,OVC006,0.02,VWS V14.01,2013-06-06 23:39:00,
2013-06-06 16:44:00,56.0,51.6,30.04,WSW,254,0.0,7.0,85,0.00,,OVC006,0.02,VWS V14.01,2013-06-06 23:44:00,
2013-06-06 16:49:00,55.9,51.5,30.04,NNW,334,0.0,2.0,85,0.00,,OVC006,0.02,VWS V14.01,2013-06-06 23:49:00,
2013-06-06 16:54:00,55.9,51.5,30.04,NW,309,4.0,4.0,85,0.00,,OVC006,0.02,VWS V14.01,2013-06-06 23:54:00,
2013-06-06 16:59:00,55.7,51.3,30.04,West,269,0.0,3.0,85,0.00,,OVC006,0.02,VWS V14.01,2013-06-06 23:59:00,
2013-06-06 17:04:00,55.7,51.3,30.04,WNW,293,3.0,5.0,85,0.00,,OVC004,0.02,VWS V14.01,2013-06-07 00:04:00,
2013-06-06 17:09:00,55.6,51.5,30.04,NW,319,2.0,4.0,86,0.00,,OVC004,0.02,VWS V14.01,2013-06-07 00:09:00,
2013-06-06 17:14:00,55.4,51.0,30.04,NNW,348,0.0,7.0,85,0.00,,OVC004,0.02,VWS V14.01,2013-06-07 00:14:00,
2013-06-06 17:19:00,55.4,51.0,30.04,West,281,0.0,7.0,85,0.00,,OVC004,0.02,VWS V14.01,2013-06-07 00:19:00,
2013-06-06 17:24:00,55.3,50.9,30.04,WNW,292,0.0,4.0,85,0.00,,OVC004,0.02,VWS V14.01,2013-06-07 00:24:00,
2013-06-06 17:29:00,55.4,51.0,30.03,WNW,298,0.0,0.0,85,0.00,,OVC004,0.02,VWS V14.01,2013-06-07 00:29:00,
2013-06-06 17:34:00,55.7,51.6,30.03,WNW,299,0.0,1.0,86,0.00,,OVC004,0.02,VWS V14.01,2013-06-07 00:34:00,
2013-06-06 17:39:00,56.0,51.6,30.04,WNW,283,0.0,6.0,85,0.00,,OVC004,0.02,VWS V14.01,2013-06-07 00:39:00,
2013-06-06 17:44:00,56.0,51.2,30.03,NW,317,0.0,1.0,84,0.00,,OVC004,0.02,VWS V14.01,2013-06-07 00:44:00,
2013-06-06 17:49:00,56.3,51.5,30.03,NW,306,4.0,6.0,84,0.00,,OVC004,0.02,VWS V14.01,2013-06-07 00:49:00,
2013-06-06 17:54:00,56.2,51.1,30.04,NNW,328,0.0,2.0,83,0.00,,OVC004,0.02,VWS V14.01,2013-06-07 00:54:00,
2013-06-06 17:59:00,56.3,51.2,30.03,West,274,3.0,4.0,83,0.00,,OVC004,0.02,VWS V14.01,2013-06-07 00:59:00,
2013-06-06 18:04:00,56.2,51.1,30.03,NNW,331,5.0,8.0,83,0.00,,OVC004,0.02,VWS V14.01,2013-06-07 01:04:00,
2013-06-06 18:09:00,55.9,50.8,30.03,WNW,286,0.0,5.0,83,0.00,,OVC004,0.02,VWS V14.01,2013-06-07 01:09:00,
2013-06-06 18:14:00,55.9,50.8,30.03,NNW,343,5.0,5.0,83,0.00,,OVC004,0.02,VWS V14.01,2013-06-07 01:14:00,
2013-06-06 18:19:00,55.7,50.6,30.03,NW,311,2.0,3.0,83,0.00,,OVC004,0.02,VWS V14.01,2013-06-07 01:19:00,
2013-06-06 18:24:00,55.7,50.6,30.03,NW,317,3.0,8.0,83,0.00,,OVC004,0.02,VWS V14.01,2013-06-07 01:24:00,
2013-06-06 18:29:00,55.4,50.7,30.03,NNW,332,3.0,5.0,84,0.00,,OVC004,0.02,VWS V14.01,2013-06-07 01:29:00,
2013-06-06 18:34:00,55.4,50.7,30.03,NW,320,3.0,5.0,84,0.00,,OVC004,0.02,VWS V14.01,2013-06-07 01:34:00,
2013-06-06 18:39:00,55.4,50.7,30.03,NW,323,9.0,9.0,84,0.00,,OVC004,0.02,VWS V14.01,2013-06-07 01:39:00,
2013-06-06 18:44:00,55.3,50.6,30.02,NW,326,3.0,5.0,84,0.00,,OVC004,0.02,VWS V14.01,2013-06-07 01:44:00,
2013-06-06 18:49:00,55.3,50.6,30.02,WNW,302,0.0,4.0,84,0.00,,OVC004,0.02,VWS V14.01,2013-06-07 01:49:00,
2013-06-06 18:54:00,55.1,50.7,30.03,NNW,329,0.0,1.0,85,0.00,,OVC004,0.02,VWS V14.01,2013-06-07 01:54:00,
2013-06-06 18:59:00,55.1,50.7,30.03,NW,306,0.0,1.0,85,0.00,,OVC004,0.02,VWS V14.01,2013-06-07 01:59:00,
2013-06-06 19:04:00,55.0,50.6,30.03,NW,306,0.0,4.0,85,0.00,,OVC008,0.02,VWS V14.01,2013-06-07 02:04:00,
2013-06-06 19:09:00,55.0,50.6,30.02,NNW,344,0.0,3.0,85,0.00,,OVC008,0.02,VWS V14.01,2013-06-07 02:09:00,
2013-06-06 19:14:00,55.0,50.6,30.03,NW,317,0.0,0.0,85,0.00,,OVC008,0.02,VWS V14.01,2013-06-07 02:14:00,
2013-06-06 19:19:00,54.8,50.4,30.03,NNW,327,3.0,5.0,85,0.00,,OVC008,0.02,VWS V14.01,2013-06-07 02:19:00,
2013-06-06 19:24:00,54.7,50.6,30.03,NW,324,0.0,2.0,86,0.00,,OVC008,0.02,VWS V14.01,2013-06-07 02:24:00,
2013-06-06 19:29:00,54.7,50.6,30.03,WNW,296,0.0,1.0,86,0.00,,OVC008,0.02,VWS V14.01,2013-06-07 02:29:00,
2013-06-06 19:34:00,54.7,50.6,30.03,NW,316,0.0,3.0,86,0.00,,OVC008,0.02,VWS V14.01,2013-06-07 02:34:00,
2013-06-06 19:39:00,54.5,50.4,30.02,WNW,286,1.0,1.0,86,0.00,,OVC008,0.02,VWS V14.01,2013-06-07 02:39:00,
2013-06-06 19:44:00,54.4,50.3,30.02,WNW,296,0.0,2.0,86,0.00,,OVC008,0.02,VWS V14.01,2013-06-07 02:44:00,
2013-06-06 19:49:00,54.2,50.1,30.03,WNW,301,0.0,3.0,86,0.00,,OVC008,0.02,VWS V14.01,2013-06-07 02:49:00,
2013-06-06 19:54:00,54.2,50.1,30.03,WNW,300,0.0,1.0,86,0.00,,OVC008,0.02,VWS V14.01,2013-06-07 02:54:00,
2013-06-06 19:59:00,54.1,50.3,30.03,WNW,300,0.0,0.0,87,0.00,,OVC008,0.02,VWS V14.01,2013-06-07 02:59:00,
2013-06-06 20:04:00,54.1,50.3,30.03,WNW,300,4.0,4.0,87,0.00,,OVC006,0.02,VWS V14.01,2013-06-07 03:04:00,
2013-06-06 20:09:00,53.9,50.1,30.03,WNW,290,0.0,0.0,87,0.00,,OVC006,0.02,VWS V14.01,2013-06-07 03:09:00,
2013-06-06 20:14:00,53.9,50.1,30.03,West,280,0.0,3.0,87,0.00,,OVC006,0.02,VWS V14.01,2013-06-07 03:14:00,
2013-06-06 20:19:00,53.8,50.0,30.02,West,280,0.0,0.0,87,0.00,,OVC006,0.02,VWS V14.01,2013-06-07 03:19:00,
2013-06-06 20:24:00,53.8,50.3,30.03,WNW,298,0.0,0.0,88,0.00,,OVC006,0.02,VWS V14.01,2013-06-07 03:24:00,
2013-06-06 20:29:00,53.6,50.1,30.03,WNW,298,0.0,0.0,88,0.00,,OVC006,0.02,VWS V14.01,2013-06-07 03:29:00,
2013-06-06 20:34:00,53.5,50.0,30.03,WNW,298,0.0,0.0,88,0.00,,OVC006,0.02,VWS V14.01,2013-06-07 03:34:00,
2013-06-06 20:39:00,53.5,50.0,30.03,WNW,298,0.0,0.0,88,0.00,,OVC006,0.02,VWS V14.01,2013-06-07 03:39:00,
2013-06-06 20:44:00,53.5,50.0,30.03,WNW,298,0.0,1.0,88,0.00,,OVC006,0.02,VWS V14.01,2013-06-07 03:44:00,
2013-06-06 20:49:00,53.3,50.2,30.02,WNW,298,0.0,0.0,89,0.00,,OVC006,0.02,VWS V14.01,2013-06-07 03:49:00,
2013-06-06 20:54:00,53.3,50.2,30.03,WNW,298,0.0,1.0,89,0.00,,OVC006,0.02,VWS V14.01,2013-06-07 03:54:00,
2013-06-06 20:59:00,53.3,50.2,30.03,WNW,298,0.0,0.0,89,0.00,,OVC006,0.02,VWS V14.01,2013-06-07 03:59:00,
2013-06-06 21:01:00,53.3,50.2,30.03,WNW,298,0.0,3.0,89,0.00,,OVC004,0.02,VWS V14.01,2013-06-07 04:01:00,
2013-06-06 21:02:00,53.3,50.2,30.03,WNW,298,0.0,0.0,89,0.00,,OVC004,0.02,VWS V14.01,2013-06-07 04:02:00,
2013-06-06 21:07:00,53.2,50.0,30.03,WNW,298,3.0,4.0,89,0.00,,OVC004,0.02,VWS V14.01,2013-06-07 04:07:00,
2013-06-06 21:12:00,53.2,50.0,30.03,WNW,298,0.0,5.0,89,0.00,,OVC004,0.02,VWS V14.01,2013-06-07 04:12:00,
2013-06-06 21:17:00,53.1,50.0,30.03,WNW,298,0.0,0.0,89,0.00,,OVC004,0.02,VWS V14.01,2013-06-07 04:17:00,
2013-06-06 21:22:00,53.1,50.0,30.03,WNW,298,0.0,0.0,89,0.00,,OVC004,0.02,VWS V14.01,2013-06-07 04:22:00,
2013-06-06 21:27:00,53.1,50.2,30.03,WNW,302,0.0,4.0,90,0.00,,OVC004,0.02,VWS V14.01,2013-06-07 04:27:00,
2013-06-06 21:32:00,52.9,50.0,30.03,WNW,302,0.0,4.0,90,0.00,,OVC004,0.02,VWS V14.01,2013-06-07 04:32:00,
2013-06-06 21:37:00,52.9,50.0,30.03,NW,317,0.0,0.0,90,0.00,,OVC004,0.02,VWS V14.01,2013-06-07 04:37:00,
2013-06-06 21:42:00,52.8,50.0,30.04,NW,317,0.0,3.0,90,0.00,,OVC004,0.02,VWS V14.01,2013-06-07 04:42:00,
2013-06-06 21:47:00,52.8,50.0,30.04,NW,306,1.0,4.0,90,0.00,,OVC004,0.02,VWS V14.01,2013-06-07 04:47:00,
2013-06-06 21:52:00,52.8,50.0,30.04,NW,306,0.0,0.0,90,0.00,,OVC004,0.02,VWS V14.01,2013-06-07 04:52:00,
2013-06-06 21:57:00,52.8,50.2,30.04,NW,306,0.0,0.0,91,0.00,,OVC004,0.02,VWS V14.01,2013-06-07 04:57:00,
2013-06-06 22:02:00,52.6,50.0,30.04,NW,306,0.0,0.0,91,0.00,,OVC003,0.02,VWS V14.01,2013-06-07 05:02:00,
2013-06-06 22:07:00,52.6,50.0,30.04,NW,306,4.0,5.0,91,0.00,,OVC003,0.02,VWS V14.01,2013-06-07 05:07:00,
2013-06-06 22:12:00,52.6,50.0,30.04,North,355,4.0,4.0,91,0.00,,OVC003,0.02,VWS V14.01,2013-06-07 05:12:00,
2013-06-06 22:17:00,52.6,50.0,30.04,North,355,0.0,0.0,91,0.00,,OVC003,0.02,VWS V14.01,2013-06-07 05:17:00,
2013-06-06 22:22:00,52.6,50.3,30.04,North,349,0.0,3.0,92,0.00,,OVC003,0.02,VWS V14.01,2013-06-07 05:22:00,
2013-06-06 22:27:00,52.5,50.2,30.04,NNW,334,0.0,1.0,92,0.00,,OVC003,0.02,VWS V14.01,2013-06-07 05:27:00,
2013-06-06 22:32:00,52.3,50.0,30.04,NNW,334,0.0,0.0,92,0.00,,OVC003,0.02,VWS V14.01,2013-06-07 05:32:00,
2013-06-06 22:37:00,52.5,50.2,30.04,NNW,334,0.0,0.0,92,0.00,,OVC003,0.02,VWS V14.01,2013-06-07 05:37:00,
2013-06-06 22:42:00,52.3,50.0,30.04,NNW,334,3.0,5.0,92,0.00,,OVC003,0.02,VWS V14.01,2013-06-07 05:42:00,
2013-06-06 22:47:00,52.3,50.0,30.04,NNW,334,0.0,3.0,92,0.00,,OVC003,0.02,VWS V14.01,2013-06-07 05:47:00,
2013-06-06 22:52:00,52.2,50.0,30.04,NNW,334,1.0,1.0,92,0.00,,OVC003,0.02,VWS V14.01,2013-06-07 05:52:00,
2013-06-06 22:57:00,52.2,50.0,30.04,NNW,334,0.0,2.0,92,0.00,,OVC003,0.02,VWS V14.01,2013-06-07 05:57:00,
2013-06-06 23:02:00,52.2,50.0,30.04,NNW,334,0.0,0.0,92,0.00,,OVC003,0.02,VWS V14.01,2013-06-07 06:02:00,
2013-06-06 23:07:00,52.2,50.0,30.04,NNW,334,0.0,1.0,92,0.00,,OVC003,0.02,VWS V14.01,2013-06-07 06:07:00,
2013-06-06 23:12:00,52.2,50.0,30.03,NNW,334,0.0,1.0,92,0.00,,OVC003,0.02,VWS V14.01,2013-06-07 06:12:00,
2013-06-06 23:17:00,52.0,49.8,30.03,NNW,334,0.0,0.0,92,0.00,,OVC003,0.02,VWS V14.01,2013-06-07 06:17:00,
2013-06-06 23:22:00,52.0,49.8,30.03,NNW,334,0.0,0.0,92,0.00,,OVC003,0.02,VWS V14.01,2013-06-07 06:22:00,
2013-06-06 23:27:00,52.2,50.0,30.03,NNW,334,0.0,0.0,92,0.00,,OVC003,0.02,VWS V14.01,2013-06-07 06:27:00,
2013-06-06 23:32:00,52.2,50.0,30.03,NNW,334,0.0,0.0,92,0.00,,OVC003,0.02,VWS V14.01,2013-06-07 06:32:00,
2013-06-06 23:37:00,52.3,50.0,30.03,NNW,334,0.0,0.0,92,0.00,,OVC003,0.02,VWS V14.01,2013-06-07 06:37:00,
2013-06-06 23:42:00,52.3,50.0,30.03,NNW,334,0.0,0.0,92,0.00,,OVC003,0.02,VWS V14.01,2013-06-07 06:42:00,
2013-06-06 23:47:00,52.3,50.0,30.03,NNW,334,0.0,0.0,92,0.00,,OVC003,0.02,VWS V14.01,2013-06-07 06:47:00,
2013-06-06 23:52:00,52.2,50.0,30.03,NNW,334,0.0,0.0,92,0.00,,OVC003,0.02,VWS V14.01,2013-06-07 06:52:00,
2013-06-06 23:57:00,52.2,50.0,30.02,NNW,334,0.0,0.0,92,0.00,,OVC003,0.02,VWS V14.01,2013-06-07 06:57:00,